createdAt,value
2023-04-20T00:01:43.550Z,100.00
2023-04-20T00:04:10.370Z,100.00
2023-04-20T00:06:37.736Z,100.00
2023-04-20T00:09:05.064Z,100.00
2023-04-20T00:11:31.913Z,100.00
2023-04-20T00:13:58.841Z,100.00
2023-04-20T00:16:25.744Z,100.00
2023-04-20T00:18:52.794Z,100.00
2023-04-20T00:21:23.808Z,100.00
2023-04-20T00:23:50.626Z,100.00
2023-04-20T00:26:17.658Z,100.00
2023-04-20T00:28:45.837Z,100.00
2023-04-20T00:31:12.917Z,100.00
2023-04-20T00:33:42.801Z,100.00
2023-04-20T00:36:09.826Z,100.00
2023-04-20T00:38:37.103Z,100.00
2023-04-20T00:41:04.149Z,100.00
2023-04-20T00:43:32.024Z,100.00
2023-04-20T00:45:58.974Z,100.00
2023-04-20T00:48:26.099Z,100.00
2023-04-20T00:50:53.066Z,100.00
2023-04-20T00:53:20.684Z,100.00
2023-04-20T00:55:50.452Z,100.00
2023-04-20T00:58:18.589Z,100.00
2023-04-20T01:00:45.583Z,100.00
2023-04-20T01:03:12.526Z,100.00
2023-04-20T01:05:40.865Z,100.00
2023-04-20T01:08:08.210Z,100.00
2023-04-20T01:10:35.686Z,100.00
2023-04-20T01:13:03.445Z,100.00
2023-04-20T01:15:30.369Z,100.00
2023-04-20T01:17:57.507Z,100.00
2023-04-20T01:20:24.672Z,100.00
2023-04-20T01:22:54.207Z,100.00
2023-04-20T01:25:21.540Z,100.00
2023-04-20T01:27:48.474Z,100.00
2023-04-20T01:30:16.657Z,100.00
2023-04-20T01:32:44.188Z,100.00
2023-04-20T01:35:11.666Z,100.00
2023-04-20T01:37:39.696Z,100.00
2023-04-20T01:40:10.846Z,100.00
2023-04-20T01:42:40.700Z,100.00
2023-04-20T01:45:08.216Z,100.00
2023-04-20T01:47:36.439Z,100.00
2023-04-20T01:50:03.674Z,100.00
2023-04-20T01:52:30.820Z,100.00
2023-04-20T01:54:57.662Z,100.00
2023-04-20T01:57:25.443Z,100.00
2023-04-20T01:59:52.291Z,100.00
2023-04-20T02:02:19.189Z,100.00
2023-04-20T02:04:46.315Z,100.00
2023-04-20T02:07:13.117Z,100.00
2023-04-20T02:09:42.919Z,100.00
2023-04-20T02:12:10.078Z,100.00
2023-04-20T02:14:39.932Z,100.00
2023-04-20T02:17:10.147Z,100.00
2023-04-20T02:19:37.354Z,100.00
2023-04-20T02:22:04.335Z,100.00
2023-04-20T02:24:31.065Z,100.00
2023-04-20T02:26:58.216Z,100.00
2023-04-20T02:29:28.093Z,100.00
2023-04-20T02:31:54.808Z,100.00
2023-04-20T02:34:22.104Z,100.00
2023-04-20T02:36:49.164Z,100.00
2023-04-20T02:39:16.343Z,100.00
2023-04-20T02:41:43.642Z,100.00
2023-04-20T02:44:10.509Z,100.00
2023-04-20T02:46:40.869Z,100.00
2023-04-20T02:49:07.827Z,100.00
2023-04-20T02:51:38.106Z,100.00
2023-04-20T02:54:05.842Z,100.00
2023-04-20T02:56:32.995Z,100.00
2023-04-20T02:59:04.234Z,100.00
2023-04-20T03:01:49.756Z,100.00
2023-04-20T03:04:21.747Z,100.00
2023-04-20T03:06:55.334Z,100.00
2023-04-20T03:09:27.355Z,100.00
2023-04-20T03:12:02.471Z,100.00
2023-04-20T03:14:49.707Z,100.00
2023-04-20T03:17:17.365Z,100.00
2023-04-20T03:19:44.151Z,100.00
2023-04-20T03:22:11.358Z,100.00
2023-04-20T03:24:38.390Z,100.00
2023-04-20T03:27:14.359Z,100.00
2023-04-20T03:29:55.322Z,100.00
2023-04-20T03:32:22.620Z,100.00
2023-04-20T03:34:50.134Z,100.00
2023-04-20T03:37:17.178Z,100.00
2023-04-20T03:39:47.151Z,100.00
2023-04-20T03:42:13.954Z,99.91
2023-04-20T03:44:41.699Z,99.69
2023-04-20T03:47:09.680Z,99.16
2023-04-20T03:49:38.052Z,99.04
2023-04-20T03:52:08.773Z,98.61
2023-04-20T03:54:36.122Z,98.26
2023-04-20T03:57:03.386Z,98.18
2023-04-20T03:59:30.433Z,97.53
2023-04-20T04:02:29.718Z,97.40
2023-04-20T04:04:57.147Z,97.45
2023-04-20T04:07:24.345Z,97.21
2023-04-20T04:09:51.439Z,97.42
2023-04-20T04:12:18.332Z,97.24
2023-04-20T04:15:20.407Z,97.36
2023-04-20T04:17:53.902Z,97.07
2023-04-20T04:20:21.454Z,97.14
2023-04-20T04:22:48.645Z,96.92
2023-04-20T04:25:41.888Z,97.03
2023-04-20T04:28:10.784Z,96.98
2023-04-20T04:30:42.330Z,97.16
2023-04-20T04:33:14.761Z,96.94
2023-04-20T04:35:43.339Z,96.74
2023-04-20T04:38:13.703Z,96.34
2023-04-20T04:40:45.225Z,96.19
2023-04-20T04:43:12.329Z,95.98
2023-04-20T04:45:41.280Z,95.88
2023-04-20T04:48:11.588Z,95.38
2023-04-20T04:50:40.507Z,95.32
2023-04-20T04:53:07.444Z,95.37
2023-04-20T04:55:37.383Z,95.24
2023-04-20T04:58:04.153Z,94.99
2023-04-20T05:00:34.523Z,94.38
2023-04-20T05:03:05.631Z,94.27
2023-04-20T05:05:34.831Z,93.65
2023-04-20T05:08:01.452Z,93.29
2023-04-20T05:10:28.254Z,93.56
2023-04-20T05:13:16.082Z,93.33
2023-04-20T05:15:43.947Z,93.06
2023-04-20T05:18:14.284Z,92.97
2023-04-20T05:21:04.239Z,92.70
2023-04-20T05:23:31.508Z,92.59
2023-04-20T05:26:03.698Z,92.40
2023-04-20T05:28:53.243Z,92.11
2023-04-20T05:31:20.260Z,91.86
2023-04-20T05:33:47.492Z,91.73
2023-04-20T05:36:14.526Z,91.44
2023-04-20T05:38:41.399Z,91.56
2023-04-20T05:41:08.895Z,91.48
2023-04-20T05:43:36.057Z,91.15
2023-04-20T05:46:23.929Z,90.81
2023-04-20T05:48:51.468Z,90.48
2023-04-20T05:51:18.258Z,90.21
2023-04-20T05:53:45.429Z,90.25
2023-04-20T05:56:13.312Z,90.18
2023-04-20T05:58:40.646Z,89.75
2023-04-20T06:01:07.685Z,89.56
2023-04-20T06:03:35.297Z,89.34
2023-04-20T06:06:02.894Z,89.06
2023-04-20T06:08:30.569Z,89.06
2023-04-20T06:10:58.559Z,89.05
2023-04-20T06:13:25.701Z,89.04
2023-04-20T06:15:55.529Z,88.72
2023-04-20T06:18:25.819Z,88.52
2023-04-20T06:20:53.078Z,88.44
2023-04-20T06:23:20.600Z,88.55
2023-04-20T06:25:47.536Z,88.22
2023-04-20T06:28:14.523Z,88.04
2023-04-20T06:30:44.416Z,87.89
2023-04-20T06:33:16.497Z,87.28
2023-04-20T06:35:43.495Z,86.84
2023-04-20T06:38:10.503Z,86.52
2023-04-20T06:40:37.501Z,86.24
2023-04-20T06:43:04.801Z,85.62
2023-04-20T06:45:33.623Z,84.83
2023-04-20T06:48:01.761Z,83.66
2023-04-20T06:50:29.233Z,82.36
2023-04-20T06:52:59.056Z,81.78
2023-04-20T06:55:27.686Z,81.22
2023-04-20T06:57:57.522Z,80.22
2023-04-20T07:00:27.954Z,79.30
2023-04-20T07:02:55.569Z,78.63
2023-04-20T07:05:23.090Z,77.41
2023-04-20T07:07:50.919Z,77.01
2023-04-20T07:10:18.588Z,76.13
2023-04-20T07:12:45.626Z,74.85
2023-04-20T07:15:13.102Z,74.10
2023-04-20T07:17:40.466Z,73.85
2023-04-20T07:20:10.932Z,72.60
2023-04-20T07:22:38.559Z,71.73
2023-04-20T07:25:07.539Z,71.71
2023-04-20T07:27:37.121Z,71.96
2023-04-20T07:30:06.039Z,71.88
2023-04-20T07:32:34.763Z,71.15
2023-04-20T07:35:02.819Z,70.96
2023-04-20T07:37:33.770Z,70.53
2023-04-20T07:40:01.604Z,70.17
2023-04-20T07:42:29.143Z,69.55
2023-04-20T07:44:56.093Z,69.18
2023-04-20T07:47:23.420Z,67.19
2023-04-20T07:49:50.591Z,64.14
2023-04-20T07:52:20.176Z,63.20
2023-04-20T07:54:47.505Z,62.89
2023-04-20T07:57:15.025Z,62.12
2023-04-20T07:59:41.943Z,61.72
2023-04-20T08:02:09.186Z,61.54
2023-04-20T08:04:40.560Z,61.80
2023-04-20T08:07:07.873Z,61.81
2023-04-20T08:09:35.300Z,62.01
2023-04-20T08:12:02.716Z,61.74
2023-04-20T08:14:30.531Z,61.08
2023-04-20T08:16:57.510Z,60.40
2023-04-20T08:19:24.312Z,59.82
2023-04-20T08:21:52.034Z,59.85
2023-04-20T08:24:20.240Z,60.32
2023-04-20T08:26:47.517Z,60.49
2023-04-20T08:29:15.018Z,60.62
2023-04-20T08:31:41.896Z,61.04
2023-04-20T08:34:12.628Z,61.23
2023-04-20T08:36:40.175Z,61.91
2023-04-20T08:39:08.900Z,62.56
2023-04-20T08:41:36.101Z,63.44
2023-04-20T08:44:03.658Z,64.75
2023-04-20T08:46:30.728Z,65.87
2023-04-20T08:48:57.841Z,67.09
2023-04-20T08:51:25.110Z,68.49
2023-04-20T08:53:51.887Z,68.85
2023-04-20T08:56:19.036Z,68.55
2023-04-20T08:58:46.171Z,68.11
2023-04-20T09:01:17.510Z,68.40
2023-04-20T09:03:47.106Z,68.99
2023-04-20T09:06:17.326Z,69.60
2023-04-20T09:09:05.858Z,69.92
2023-04-20T09:11:53.587Z,69.48
2023-04-20T09:14:25.166Z,69.39
2023-04-20T09:17:04.791Z,69.24
2023-04-20T09:19:33.563Z,68.44
2023-04-20T09:22:04.652Z,67.47
2023-04-20T09:59:43.110Z,72.09
2023-04-20T10:02:12.688Z,72.45
2023-04-20T10:04:57.988Z,72.60
2023-04-20T10:07:30.006Z,72.94
2023-04-20T10:10:15.802Z,73.12
2023-04-20T10:12:51.282Z,73.88
2023-04-20T10:15:22.033Z,74.10
2023-04-20T10:17:51.834Z,73.76
2023-04-20T10:20:21.172Z,73.79
2023-04-20T10:22:53.673Z,74.00
2023-04-20T10:25:24.941Z,74.49
2023-04-20T10:28:00.621Z,74.59
2023-04-20T10:53:33.024Z,76.31
2023-04-20T10:56:01.773Z,76.66
2023-04-20T10:58:35.645Z,76.78
2023-04-20T11:01:06.198Z,76.18
2023-04-20T11:03:37.258Z,75.97
2023-04-20T11:06:09.549Z,76.38
2023-04-20T11:08:40.744Z,76.75
2023-04-20T11:11:25.669Z,77.55
2023-04-20T11:14:08.341Z,78.50
2023-04-20T11:16:48.584Z,79.13
2023-04-20T11:19:33.527Z,80.07
2023-04-20T11:22:02.538Z,80.89
2023-04-20T11:24:33.048Z,81.37
2023-04-20T11:27:02.044Z,81.81
2023-04-20T11:29:30.525Z,82.20
2023-04-20T11:32:00.059Z,82.62
2023-04-20T11:34:28.940Z,83.44
2023-04-20T11:37:07.695Z,83.99
2023-04-20T11:39:37.742Z,84.43
2023-04-20T11:42:09.204Z,84.88
2023-04-20T11:44:41.388Z,85.36
2023-04-20T11:47:10.183Z,85.98
2023-04-20T11:49:42.401Z,86.47
2023-04-20T11:52:11.699Z,86.97
2023-04-20T11:54:40.174Z,87.00
2023-04-20T11:57:08.720Z,87.27
2023-04-20T11:59:37.387Z,87.68
2023-04-20T12:02:06.279Z,88.07
2023-04-20T12:04:39.352Z,88.33
2023-04-20T12:07:07.876Z,88.50
2023-04-20T12:09:38.435Z,88.48
2023-04-20T12:12:08.796Z,88.54
2023-04-20T12:14:40.264Z,88.87
2023-04-20T12:17:09.290Z,89.44
2023-04-20T12:19:38.335Z,89.71
2023-04-20T12:22:07.466Z,89.54
2023-04-20T12:24:36.643Z,89.21
2023-04-20T12:27:06.302Z,89.34
2023-04-20T12:29:34.768Z,89.50
2023-04-20T12:32:03.431Z,89.25
2023-04-20T12:34:32.514Z,89.46
2023-04-20T12:37:01.637Z,89.74
2023-04-20T12:39:33.392Z,90.56
2023-04-20T12:42:22.320Z,91.04
2023-04-20T12:44:54.494Z,91.79
2023-04-20T12:47:23.072Z,91.98
2023-04-20T12:49:51.948Z,92.54
2023-04-20T12:52:20.833Z,92.41
2023-04-20T12:54:50.071Z,92.46
2023-04-20T12:57:18.356Z,92.69
2023-04-20T12:59:48.910Z,92.46
2023-04-20T13:02:17.865Z,92.55
2023-04-20T13:04:47.146Z,92.93
2023-04-20T13:07:16.017Z,93.53
2023-04-20T13:09:46.102Z,94.33
2023-04-20T13:12:16.193Z,94.70
2023-04-20T13:14:47.514Z,95.11
2023-04-20T13:17:17.210Z,95.61
2023-04-20T13:19:49.771Z,96.39
2023-04-20T13:22:19.543Z,97.20
2023-04-20T13:24:48.801Z,97.62
2023-04-20T13:27:20.472Z,98.11
2023-04-20T13:29:50.583Z,98.95
2023-04-20T13:32:19.486Z,99.71
2023-04-20T13:34:48.299Z,100.00
2023-04-20T13:37:16.869Z,100.00
2023-04-20T13:39:45.416Z,100.00
2023-04-20T13:42:13.954Z,100.00
2023-04-20T13:45:03.531Z,100.00
2023-04-20T13:47:32.407Z,100.00
2023-04-20T13:50:03.789Z,100.00
2023-04-20T13:52:32.821Z,100.00
2023-04-20T13:55:04.897Z,100.00
2023-04-20T13:57:33.469Z,100.00
2023-04-20T14:00:02.599Z,100.00
2023-04-20T14:02:33.965Z,100.00
2023-04-20T14:05:04.266Z,100.00
2023-04-20T14:07:33.212Z,100.00
2023-04-20T14:10:02.003Z,100.00
2023-04-20T14:12:30.858Z,100.00
2023-04-20T14:14:59.552Z,100.00
2023-04-20T14:17:27.916Z,100.00
2023-04-20T14:19:56.877Z,100.00
2023-04-20T14:22:25.097Z,100.00
2023-04-20T14:24:53.251Z,100.00
2023-04-20T14:27:21.582Z,100.00
2023-04-20T14:29:51.144Z,100.00
2023-04-20T14:32:19.798Z,100.00
2023-04-20T14:34:48.269Z,100.00
2023-04-20T14:37:16.496Z,100.00
2023-04-20T14:39:44.842Z,100.00
2023-04-20T14:47:08.093Z,100.00
2023-04-20T18:13:44.685Z,99.13
2023-04-20T20:47:21.916Z,76.99
2023-04-20T20:49:50.420Z,77.10
2023-04-20T20:52:18.680Z,77.07
2023-04-20T20:54:47.387Z,77.07
2023-04-20T20:57:15.647Z,77.00
2023-04-20T20:59:43.921Z,77.21
2023-04-20T21:02:12.454Z,77.40
2023-04-20T21:04:40.983Z,77.57
2023-04-20T21:07:09.566Z,77.62
2023-04-20T21:09:38.226Z,77.91
2023-04-20T21:12:07.363Z,77.96
2023-04-20T21:14:37.468Z,77.95
2023-04-20T21:17:05.838Z,77.52
2023-04-20T21:19:35.250Z,77.58
2023-04-20T21:22:03.728Z,77.44
2023-04-20T21:32:07.928Z,76.79
2023-04-20T21:34:36.590Z,76.76
2023-04-20T21:37:05.817Z,76.72
2023-04-20T21:39:34.596Z,76.84
2023-04-20T21:42:03.747Z,76.94
2023-04-20T21:44:32.064Z,77.54
2023-04-20T21:54:42.142Z,77.53
2023-04-20T21:57:10.625Z,77.50
2023-04-20T21:59:38.943Z,77.88
2023-04-20T22:02:07.470Z,78.00
2023-04-20T22:04:36.065Z,78.26
2023-04-20T22:07:04.600Z,78.41
2023-04-20T22:09:33.109Z,78.74
2023-04-20T22:12:02.159Z,79.07
2023-04-20T22:14:31.204Z,78.97
2023-04-20T22:16:59.749Z,79.29
2023-04-20T22:19:29.151Z,79.58
2023-04-20T22:21:57.384Z,80.07
2023-04-20T22:24:25.790Z,80.08
2023-04-20T22:26:53.946Z,80.40
2023-04-20T22:35:54.081Z,81.91
2023-04-20T22:38:22.385Z,82.24
2023-04-20T22:40:50.833Z,82.63
2023-04-20T22:43:22.018Z,83.08
2023-04-20T22:45:50.359Z,83.41
2023-04-20T22:48:19.347Z,83.56
2023-04-20T22:50:47.832Z,83.73
2023-04-20T22:53:16.001Z,83.84
2023-04-20T22:55:44.613Z,84.10
2023-04-20T22:58:13.171Z,84.54
2023-04-20T23:00:41.734Z,84.80
2023-04-20T23:03:10.505Z,85.11
2023-04-20T23:05:39.429Z,85.40
2023-04-20T23:08:11.425Z,85.15
2023-04-20T23:10:41.121Z,85.28
2023-04-20T23:13:16.449Z,85.38
2023-04-20T23:15:44.991Z,85.83
2023-04-20T23:18:13.530Z,86.19
2023-04-20T23:20:42.496Z,86.11
2023-04-20T23:23:11.738Z,86.48
2023-04-20T23:33:16.472Z,88.56
2023-04-20T23:35:44.725Z,88.88
2023-04-20T23:38:12.970Z,88.88
2023-04-20T23:40:44.250Z,89.04
2023-04-20T23:43:12.645Z,89.19
2023-04-20T23:45:40.939Z,89.16
2023-04-20T23:48:09.505Z,89.23
2023-04-20T23:50:38.086Z,89.46
2023-04-20T23:53:07.694Z,89.70
2023-04-20T23:55:36.202Z,90.14
2023-04-20T23:58:04.450Z,90.30
